sensor_id;sensor_type;location;lat;lon;timestamp;pressure;altitude;pressure_sealevel;temperature
12061;BMP180;6091;51.432;6.880;2024-03-23T00:53:57;100257.00;;;24.00
12061;BMP180;6091;51.432;6.880;2024-03-23T00:56:23;100250.00;;;24.00
12061;BMP180;6091;51.432;6.880;2024-03-23T00:58:50;100249.00;;;24.00
12061;BMP180;6091;51.432;6.880;2024-03-23T01:01:16;100243.00;;;24.00
12061;BMP180;6091;51.432;6.880;2024-03-23T01:03:42;100259.00;;;24.00
12061;BMP180;6091;51.432;6.880;2024-03-23T01:06:08;100253.00;;;24.00
12061;BMP180;6091;51.432;6.880;2024-03-23T01:08:34;100254.00;;;23.90
12061;BMP180;6091;51.432;6.880;2024-03-23T01:11:01;100246.00;;;24.00
12061;BMP180;6091;51.432;6.880;2024-03-23T01:13:28;100231.00;;;23.90
12061;BMP180;6091;51.432;6.880;2024-03-23T01:15:56;100248.00;;;23.90
12061;BMP180;6091;51.432;6.880;2024-03-23T01:18:23;100248.00;;;23.90
12061;BMP180;6091;51.432;6.880;2024-03-23T01:20:50;100245.00;;;23.90
12061;BMP180;6091;51.432;6.880;2024-03-23T01:23:16;100237.00;;;23.90
12061;BMP180;6091;51.432;6.880;2024-03-23T01:25:42;100241.00;;;23.90
12061;BMP180;6091;51.432;6.880;2024-03-23T01:28:08;100219.00;;;23.90
12061;BMP180;6091;51.432;6.880;2024-03-23T01:30:35;100213.00;;;23.90
12061;BMP180;6091;51.432;6.880;2024-03-23T01:33:02;100228.00;;;23.90
12061;BMP180;6091;51.432;6.880;2024-03-23T01:35:29;100207.00;;;23.90
12061;BMP180;6091;51.432;6.880;2024-03-23T01:37:55;100217.00;;;23.90
12061;BMP180;6091;51.432;6.880;2024-03-23T01:40:21;100226.00;;;23.80
12061;BMP180;6091;51.432;6.880;2024-03-23T01:43:23;100213.00;;;23.80
12061;BMP180;6091;51.432;6.880;2024-03-23T01:45:51;100201.00;;;23.80
12061;BMP180;6091;51.432;6.880;2024-03-23T01:48:20;100195.00;;;23.80
12061;BMP180;6091;51.432;6.880;2024-03-23T01:50:47;100187.00;;;23.80
12061;BMP180;6091;51.432;6.880;2024-03-23T01:53:15;100190.00;;;23.80
12061;BMP180;6091;51.432;6.880;2024-03-23T01:55:43;100192.00;;;23.80
12061;BMP180;6091;51.432;6.880;2024-03-23T01:58:10;100189.00;;;23.80
12061;BMP180;6091;51.432;6.880;2024-03-23T02:00:36;100183.00;;;23.80
12061;BMP180;6091;51.432;6.880;2024-03-23T02:03:21;100172.00;;;23.80
12061;BMP180;6091;51.432;6.880;2024-03-23T02:05:48;100170.00;;;23.80
12061;BMP180;6091;51.432;6.880;2024-03-23T02:08:15;100177.00;;;23.80
12061;BMP180;6091;51.432;6.880;2024-03-23T02:10:41;100175.00;;;23.80
12061;BMP180;6091;51.432;6.880;2024-03-23T02:13:08;100171.00;;;23.70
12061;BMP180;6091;51.432;6.880;2024-03-23T02:15:35;100182.00;;;23.80
12061;BMP180;6091;51.432;6.880;2024-03-23T02:18:01;100181.00;;;23.80
12061;BMP180;6091;51.432;6.880;2024-03-23T02:20:28;100181.00;;;23.70
12061;BMP180;6091;51.432;6.880;2024-03-23T02:22:54;100171.00;;;23.70
12061;BMP180;6091;51.432;6.880;2024-03-23T02:25:20;100176.00;;;23.70
12061;BMP180;6091;51.432;6.880;2024-03-23T02:27:46;100174.00;;;23.70
12061;BMP180;6091;51.432;6.880;2024-03-23T02:30:12;100160.00;;;23.70
12061;BMP180;6091;51.432;6.880;2024-03-23T02:32:38;100163.00;;;23.70
12061;BMP180;6091;51.432;6.880;2024-03-23T02:35:05;100167.00;;;23.70
12061;BMP180;6091;51.432;6.880;2024-03-23T02:37:31;100162.00;;;23.70
12061;BMP180;6091;51.432;6.880;2024-03-23T02:39:59;100171.00;;;23.70
12061;BMP180;6091;51.432;6.880;2024-03-23T02:42:25;100171.00;;;23.70
12061;BMP180;6091;51.432;6.880;2024-03-23T02:44:51;100163.00;;;23.70
12061;BMP180;6091;51.432;6.880;2024-03-23T02:47:17;100159.00;;;23.70
12061;BMP180;6091;51.432;6.880;2024-03-23T02:49:43;100161.00;;;23.70
12061;BMP180;6091;51.432;6.880;2024-03-23T02:52:09;100164.00;;;23.70
12061;BMP180;6091;51.432;6.880;2024-03-23T02:54:35;100171.00;;;23.70
12061;BMP180;6091;51.432;6.880;2024-03-23T02:57:01;100186.00;;;23.70
12061;BMP180;6091;51.432;6.880;2024-03-23T02:59:28;100195.00;;;23.60
12061;BMP180;6091;51.432;6.880;2024-03-23T03:01:54;100191.00;;;23.70
12061;BMP180;6091;51.432;6.880;2024-03-23T03:04:20;100178.00;;;23.60
12061;BMP180;6091;51.432;6.880;2024-03-23T03:06:47;100174.00;;;23.60
12061;BMP180;6091;51.432;6.880;2024-03-23T03:09:14;100171.00;;;23.60
12061;BMP180;6091;51.432;6.880;2024-03-23T03:11:40;100162.00;;;23.60
12061;BMP180;6091;51.432;6.880;2024-03-23T03:14:06;100164.00;;;23.60
12061;BMP180;6091;51.432;6.880;2024-03-23T03:16:33;100165.00;;;23.60
12061;BMP180;6091;51.432;6.880;2024-03-23T03:19:00;100166.00;;;23.60
12061;BMP180;6091;51.432;6.880;2024-03-23T03:21:27;100172.00;;;23.60
12061;BMP180;6091;51.432;6.880;2024-03-23T03:23:53;100175.00;;;23.60
12061;BMP180;6091;51.432;6.880;2024-03-23T03:26:19;100158.00;;;23.60
12061;BMP180;6091;51.432;6.880;2024-03-23T03:28:45;100150.00;;;23.60
12061;BMP180;6091;51.432;6.880;2024-03-23T03:31:23;100164.00;;;23.60
12061;BMP180;6091;51.432;6.880;2024-03-23T03:33:50;100157.00;;;23.60
12061;BMP180;6091;51.432;6.880;2024-03-23T03:36:19;100150.00;;;23.60
12061;BMP180;6091;51.432;6.880;2024-03-23T03:38:45;100147.00;;;23.50
12061;BMP180;6091;51.432;6.880;2024-03-23T03:41:11;100157.00;;;23.50
12061;BMP180;6091;51.432;6.880;2024-03-23T03:43:37;100164.00;;;23.50
12061;BMP180;6091;51.432;6.880;2024-03-23T03:46:04;100160.00;;;23.50
12061;BMP180;6091;51.432;6.880;2024-03-23T03:48:30;100158.00;;;23.50
12061;BMP180;6091;51.432;6.880;2024-03-23T03:50:56;100153.00;;;23.50
12061;BMP180;6091;51.432;6.880;2024-03-23T03:53:22;100156.00;;;23.50
12061;BMP180;6091;51.432;6.880;2024-03-23T03:55:48;100156.00;;;23.50
12061;BMP180;6091;51.432;6.880;2024-03-23T03:58:14;100149.00;;;23.50
12061;BMP180;6091;51.432;6.880;2024-03-23T04:00:41;100154.00;;;23.50
12061;BMP180;6091;51.432;6.880;2024-03-23T04:03:07;100154.00;;;23.50
12061;BMP180;6091;51.432;6.880;2024-03-23T04:05:33;100150.00;;;23.50
12061;BMP180;6091;51.432;6.880;2024-03-23T04:07:59;100154.00;;;23.50
12061;BMP180;6091;51.432;6.880;2024-03-23T04:10:25;100148.00;;;23.50
12061;BMP180;6091;51.432;6.880;2024-03-23T04:12:52;100145.00;;;23.50
12061;BMP180;6091;51.432;6.880;2024-03-23T04:15:20;100150.00;;;23.50
12061;BMP180;6091;51.432;6.880;2024-03-23T04:17:46;100153.00;;;23.50
12061;BMP180;6091;51.432;6.880;2024-03-23T04:20:13;100142.00;;;23.40
12061;BMP180;6091;51.432;6.880;2024-03-23T04:22:40;100149.00;;;23.40
12061;BMP180;6091;51.432;6.880;2024-03-23T04:25:07;100145.00;;;23.40
12061;BMP180;6091;51.432;6.880;2024-03-23T04:27:33;100148.00;;;23.40
12061;BMP180;6091;51.432;6.880;2024-03-23T04:29:59;100140.00;;;23.40
12061;BMP180;6091;51.432;6.880;2024-03-23T04:32:28;100143.00;;;23.40
12061;BMP180;6091;51.432;6.880;2024-03-23T04:34:54;100133.00;;;23.40
12061;BMP180;6091;51.432;6.880;2024-03-23T04:37:21;100143.00;;;23.40
12061;BMP180;6091;51.432;6.880;2024-03-23T04:39:48;100135.00;;;23.40
12061;BMP180;6091;51.432;6.880;2024-03-23T04:42:17;100137.00;;;23.40
12061;BMP180;6091;51.432;6.880;2024-03-23T04:44:43;100143.00;;;23.40
12061;BMP180;6091;51.432;6.880;2024-03-23T04:47:11;100140.00;;;23.40
12061;BMP180;6091;51.432;6.880;2024-03-23T04:49:37;100142.00;;;23.40
12061;BMP180;6091;51.432;6.880;2024-03-23T04:52:04;100132.00;;;23.40
12061;BMP180;6091;51.432;6.880;2024-03-23T04:54:31;100128.00;;;23.40
12061;BMP180;6091;51.432;6.880;2024-03-23T04:56:58;100130.00;;;23.40
12061;BMP180;6091;51.432;6.880;2024-03-23T04:59:25;100135.00;;;23.40
12061;BMP180;6091;51.432;6.880;2024-03-23T05:01:51;100141.00;;;23.40
12061;BMP180;6091;51.432;6.880;2024-03-23T05:04:17;100138.00;;;23.30
12061;BMP180;6091;51.432;6.880;2024-03-23T05:06:43;100129.00;;;23.30
12061;BMP180;6091;51.432;6.880;2024-03-23T05:09:09;100138.00;;;23.30
12061;BMP180;6091;51.432;6.880;2024-03-23T05:11:38;100138.00;;;23.30
12061;BMP180;6091;51.432;6.880;2024-03-23T05:14:04;100131.00;;;23.30
12061;BMP180;6091;51.432;6.880;2024-03-23T05:16:30;100127.00;;;23.30
12061;BMP180;6091;51.432;6.880;2024-03-23T05:18:57;100130.00;;;23.30
12061;BMP180;6091;51.432;6.880;2024-03-23T05:21:23;100133.00;;;23.30
12061;BMP180;6091;51.432;6.880;2024-03-23T05:23:49;100131.00;;;23.30
12061;BMP180;6091;51.432;6.880;2024-03-23T05:26:15;100146.00;;;23.30
12061;BMP180;6091;51.432;6.880;2024-03-23T05:28:41;100147.00;;;23.30
12061;BMP180;6091;51.432;6.880;2024-03-23T05:31:07;100151.00;;;23.30
12061;BMP180;6091;51.432;6.880;2024-03-23T05:33:38;100148.00;;;23.30
12061;BMP180;6091;51.432;6.880;2024-03-23T05:36:04;100144.00;;;23.30
12061;BMP180;6091;51.432;6.880;2024-03-23T05:38:31;100146.00;;;23.30
12061;BMP180;6091;51.432;6.880;2024-03-23T05:41:00;100147.00;;;23.30
12061;BMP180;6091;51.432;6.880;2024-03-23T05:43:26;100151.00;;;23.30
12061;BMP180;6091;51.432;6.880;2024-03-23T05:45:59;100148.00;;;23.30
12061;BMP180;6091;51.432;6.880;2024-03-23T05:48:27;100149.00;;;23.20
12061;BMP180;6091;51.432;6.880;2024-03-23T05:50:53;100153.00;;;23.20
12061;BMP180;6091;51.432;6.880;2024-03-23T05:53:20;100152.00;;;23.20
12061;BMP180;6091;51.432;6.880;2024-03-23T05:55:50;100149.00;;;23.20
12061;BMP180;6091;51.432;6.880;2024-03-23T05:58:18;100147.00;;;23.20
12061;BMP180;6091;51.432;6.880;2024-03-23T06:00:46;100152.00;;;23.20
12061;BMP180;6091;51.432;6.880;2024-03-23T06:03:13;100153.00;;;23.20
12061;BMP180;6091;51.432;6.880;2024-03-23T06:05:39;100150.00;;;23.20
12061;BMP180;6091;51.432;6.880;2024-03-23T06:08:06;100154.00;;;23.20
12061;BMP180;6091;51.432;6.880;2024-03-23T06:10:35;100162.00;;;23.20
12061;BMP180;6091;51.432;6.880;2024-03-23T06:13:01;100160.00;;;23.20
12061;BMP180;6091;51.432;6.880;2024-03-23T06:15:27;100173.00;;;23.20
12061;BMP180;6091;51.432;6.880;2024-03-23T06:17:53;100176.00;;;23.20
12061;BMP180;6091;51.432;6.880;2024-03-23T06:20:19;100173.00;;;23.20
12061;BMP180;6091;51.432;6.880;2024-03-23T06:22:45;100171.00;;;23.20
12061;BMP180;6091;51.432;6.880;2024-03-23T06:25:11;100168.00;;;23.20
12061;BMP180;6091;51.432;6.880;2024-03-23T06:27:38;100168.00;;;23.20
12061;BMP180;6091;51.432;6.880;2024-03-23T06:30:06;100168.00;;;23.20
12061;BMP180;6091;51.432;6.880;2024-03-23T06:32:32;100170.00;;;23.20
12061;BMP180;6091;51.432;6.880;2024-03-23T06:34:59;100168.00;;;23.20
12061;BMP180;6091;51.432;6.880;2024-03-23T06:37:25;100167.00;;;23.20
12061;BMP180;6091;51.432;6.880;2024-03-23T06:39:51;100174.00;;;23.20
12061;BMP180;6091;51.432;6.880;2024-03-23T06:42:17;100170.00;;;23.20
12061;BMP180;6091;51.432;6.880;2024-03-23T06:44:44;100172.00;;;23.20
12061;BMP180;6091;51.432;6.880;2024-03-23T06:47:10;100170.00;;;23.10
12061;BMP180;6091;51.432;6.880;2024-03-23T06:49:36;100175.00;;;23.20
12061;BMP180;6091;51.432;6.880;2024-03-23T06:52:02;100176.00;;;23.20
12061;BMP180;6091;51.432;6.880;2024-03-23T06:54:28;100171.00;;;23.20
12061;BMP180;6091;51.432;6.880;2024-03-23T06:56:54;100180.00;;;23.20
12061;BMP180;6091;51.432;6.880;2024-03-23T06:59:20;100177.00;;;23.20
12061;BMP180;6091;51.432;6.880;2024-03-23T07:01:46;100177.00;;;23.20
12061;BMP180;6091;51.432;6.880;2024-03-23T07:04:12;100181.00;;;23.20
12061;BMP180;6091;51.432;6.880;2024-03-23T07:06:46;100165.00;;;23.20
12061;BMP180;6091;51.432;6.880;2024-03-23T07:09:12;100171.00;;;23.20
12061;BMP180;6091;51.432;6.880;2024-03-23T07:11:38;100175.00;;;23.20
12061;BMP180;6091;51.432;6.880;2024-03-23T07:14:04;100173.00;;;23.20
12061;BMP180;6091;51.432;6.880;2024-03-23T07:16:31;100174.00;;;23.20
12061;BMP180;6091;51.432;6.880;2024-03-23T07:18:57;100174.00;;;23.20
12061;BMP180;6091;51.432;6.880;2024-03-23T07:21:23;100173.00;;;23.20
12061;BMP180;6091;51.432;6.880;2024-03-23T07:23:49;100173.00;;;23.20
12061;BMP180;6091;51.432;6.880;2024-03-23T07:26:15;100175.00;;;23.20
12061;BMP180;6091;51.432;6.880;2024-03-23T07:28:43;100171.00;;;23.20
12061;BMP180;6091;51.432;6.880;2024-03-23T07:31:13;100173.00;;;23.20
12061;BMP180;6091;51.432;6.880;2024-03-23T07:33:48;100176.00;;;23.20
12061;BMP180;6091;51.432;6.880;2024-03-23T07:36:15;100178.00;;;23.20
12061;BMP180;6091;51.432;6.880;2024-03-23T07:38:42;100173.00;;;23.20
12061;BMP180;6091;51.432;6.880;2024-03-23T07:41:11;100172.00;;;23.20
12061;BMP180;6091;51.432;6.880;2024-03-23T07:43:39;100167.00;;;23.20
12061;BMP180;6091;51.432;6.880;2024-03-23T07:46:06;100175.00;;;23.30
12061;BMP180;6091;51.432;6.880;2024-03-23T07:48:33;100173.00;;;23.30
12061;BMP180;6091;51.432;6.880;2024-03-23T07:51:04;100180.00;;;23.30
12061;BMP180;6091;51.432;6.880;2024-03-23T07:53:32;100178.00;;;23.30
12061;BMP180;6091;51.432;6.880;2024-03-23T07:56:09;100184.00;;;23.30
12061;BMP180;6091;51.432;6.880;2024-03-23T07:58:37;100178.00;;;23.30
12061;BMP180;6091;51.432;6.880;2024-03-23T08:01:15;100190.00;;;23.30
12061;BMP180;6091;51.432;6.880;2024-03-23T08:03:46;100189.00;;;23.30
12061;BMP180;6091;51.432;6.880;2024-03-23T08:06:19;100189.00;;;23.30
12061;BMP180;6091;51.432;6.880;2024-03-23T08:08:48;100177.00;;;23.30
12061;BMP180;6091;51.432;6.880;2024-03-23T08:11:15;100173.00;;;23.30
12061;BMP180;6091;51.432;6.880;2024-03-23T08:13:44;100189.00;;;23.30
12061;BMP180;6091;51.432;6.880;2024-03-23T08:16:11;100182.00;;;23.30
12061;BMP180;6091;51.432;6.880;2024-03-23T08:18:39;100186.00;;;23.30
12061;BMP180;6091;51.432;6.880;2024-03-23T08:21:06;100196.00;;;23.30
12061;BMP180;6091;51.432;6.880;2024-03-23T08:23:34;100193.00;;;23.30
12061;BMP180;6091;51.432;6.880;2024-03-23T08:26:06;100187.00;;;23.30
12061;BMP180;6091;51.432;6.880;2024-03-23T08:28:33;100180.00;;;23.40
12061;BMP180;6091;51.432;6.880;2024-03-23T08:31:06;100178.00;;;23.40
12061;BMP180;6091;51.432;6.880;2024-03-23T08:33:33;100180.00;;;23.40
12061;BMP180;6091;51.432;6.880;2024-03-23T08:36:02;100186.00;;;23.50
12061;BMP180;6091;51.432;6.880;2024-03-23T08:38:29;100178.00;;;23.50
12061;BMP180;6091;51.432;6.880;2024-03-23T08:41:02;100186.00;;;23.50
12061;BMP180;6091;51.432;6.880;2024-03-23T08:43:30;100189.00;;;23.50
12061;BMP180;6091;51.432;6.880;2024-03-23T08:48:38;100195.00;;;23.50
12061;BMP180;6091;51.432;6.880;2024-03-23T08:51:07;100197.00;;;23.50
12061;BMP180;6091;51.432;6.880;2024-03-23T08:53:35;100193.00;;;23.50
12061;BMP180;6091;51.432;6.880;2024-03-23T08:56:03;100202.00;;;23.50
12061;BMP180;6091;51.432;6.880;2024-03-23T08:58:31;100210.00;;;23.50
12061;BMP180;6091;51.432;6.880;2024-03-23T09:01:08;100204.00;;;23.50
12061;BMP180;6091;51.432;6.880;2024-03-23T09:03:36;100202.00;;;23.50
12061;BMP180;6091;51.432;6.880;2024-03-23T09:06:11;100198.00;;;23.50
12061;BMP180;6091;51.432;6.880;2024-03-23T09:08:39;100199.00;;;23.50
12061;BMP180;6091;51.432;6.880;2024-03-23T09:11:13;100202.00;;;23.50
12061;BMP180;6091;51.432;6.880;2024-03-23T09:13:40;100204.00;;;23.50
12061;BMP180;6091;51.432;6.880;2024-03-23T09:16:08;100204.00;;;23.50
12061;BMP180;6091;51.432;6.880;2024-03-23T09:18:36;100207.00;;;23.50
12061;BMP180;6091;51.432;6.880;2024-03-23T09:21:04;100199.00;;;23.50
12061;BMP180;6091;51.432;6.880;2024-03-23T09:23:30;100197.00;;;23.50
12061;BMP180;6091;51.432;6.880;2024-03-23T09:25:56;100201.00;;;23.50
12061;BMP180;6091;51.432;6.880;2024-03-23T09:28:23;100196.00;;;23.50
12061;BMP180;6091;51.432;6.880;2024-03-23T09:30:49;100204.00;;;23.60
12061;BMP180;6091;51.432;6.880;2024-03-23T09:33:15;100196.00;;;23.60
12061;BMP180;6091;51.432;6.880;2024-03-23T09:35:43;100200.00;;;23.60
12061;BMP180;6091;51.432;6.880;2024-03-23T09:38:13;100191.00;;;23.60
12061;BMP180;6091;51.432;6.880;2024-03-23T09:40:43;100195.00;;;23.70
12061;BMP180;6091;51.432;6.880;2024-03-23T09:43:10;100200.00;;;23.70
12061;BMP180;6091;51.432;6.880;2024-03-23T09:45:39;100188.00;;;23.70
12061;BMP180;6091;51.432;6.880;2024-03-23T09:48:10;100186.00;;;23.70
12061;BMP180;6091;51.432;6.880;2024-03-23T09:50:40;100191.00;;;23.70
12061;BMP180;6091;51.432;6.880;2024-03-23T09:53:12;100177.00;;;23.80
12061;BMP180;6091;51.432;6.880;2024-03-23T09:55:40;100175.00;;;23.80
12061;BMP180;6091;51.432;6.880;2024-03-23T09:58:07;100180.00;;;24.00
12061;BMP180;6091;51.432;6.880;2024-03-23T10:00:35;100172.00;;;23.90
12061;BMP180;6091;51.432;6.880;2024-03-23T10:03:04;100166.00;;;23.90
12061;BMP180;6091;51.432;6.880;2024-03-23T10:05:33;100159.00;;;23.90
12061;BMP180;6091;51.432;6.880;2024-03-23T10:08:31;100150.00;;;23.90
12061;BMP180;6091;51.432;6.880;2024-03-23T10:11:13;100159.00;;;23.90
12061;BMP180;6091;51.432;6.880;2024-03-23T10:13:45;100159.00;;;24.00
12061;BMP180;6091;51.432;6.880;2024-03-23T10:16:24;100151.00;;;24.00
12061;BMP180;6091;51.432;6.880;2024-03-23T10:18:53;100143.00;;;24.00
12061;BMP180;6091;51.432;6.880;2024-03-23T10:21:19;100147.00;;;24.10
12061;BMP180;6091;51.432;6.880;2024-03-23T10:23:46;100147.00;;;24.20
12061;BMP180;6091;51.432;6.880;2024-03-23T10:26:24;100160.00;;;24.30
12061;BMP180;6091;51.432;6.880;2024-03-23T10:29:02;100157.00;;;24.40
12061;BMP180;6091;51.432;6.880;2024-03-23T10:31:37;100155.00;;;24.40
12061;BMP180;6091;51.432;6.880;2024-03-23T10:34:06;100157.00;;;24.40
12061;BMP180;6091;51.432;6.880;2024-03-23T10:36:37;100148.00;;;24.40
12061;BMP180;6091;51.432;6.880;2024-03-23T10:39:07;100174.00;;;24.40
12061;BMP180;6091;51.432;6.880;2024-03-23T10:41:34;100211.00;;;24.30
12061;BMP180;6091;51.432;6.880;2024-03-23T10:44:02;100235.00;;;24.30
12061;BMP180;6091;51.432;6.880;2024-03-23T10:46:28;100233.00;;;24.30
12061;BMP180;6091;51.432;6.880;2024-03-23T10:48:54;100225.00;;;24.20
12061;BMP180;6091;51.432;6.880;2024-03-23T10:51:21;100225.00;;;24.20
12061;BMP180;6091;51.432;6.880;2024-03-23T10:53:48;100218.00;;;24.20
12061;BMP180;6091;51.432;6.880;2024-03-23T10:56:16;100212.00;;;24.10
12061;BMP180;6091;51.432;6.880;2024-03-23T10:58:47;100211.00;;;24.10
12061;BMP180;6091;51.432;6.880;2024-03-23T11:01:15;100217.00;;;24.10
12061;BMP180;6091;51.432;6.880;2024-03-23T11:03:49;100220.00;;;24.10
12061;BMP180;6091;51.432;6.880;2024-03-23T11:06:48;100207.00;;;24.10
12061;BMP180;6091;51.432;6.880;2024-03-23T11:15:11;100201.00;;;24.40
12061;BMP180;6091;51.432;6.880;2024-03-23T11:17:37;100201.00;;;24.50
12061;BMP180;6091;51.432;6.880;2024-03-23T11:20:08;100202.00;;;24.70
12061;BMP180;6091;51.432;6.880;2024-03-23T11:22:45;100202.00;;;24.90
12061;BMP180;6091;51.432;6.880;2024-03-23T11:25:25;100197.00;;;25.10
12061;BMP180;6091;51.432;6.880;2024-03-23T11:27:54;100196.00;;;25.30
12061;BMP180;6091;51.432;6.880;2024-03-23T11:30:28;100196.00;;;25.60
12061;BMP180;6091;51.432;6.880;2024-03-23T11:32:56;100199.00;;;26.00
12061;BMP180;6091;51.432;6.880;2024-03-23T11:35:40;100195.00;;;26.30
12061;BMP180;6091;51.432;6.880;2024-03-23T11:38:12;100195.00;;;26.70
12061;BMP180;6091;51.432;6.880;2024-03-23T11:40:41;100194.00;;;27.00
12061;BMP180;6091;51.432;6.880;2024-03-23T11:43:14;100186.00;;;27.30
12061;BMP180;6091;51.432;6.880;2024-03-23T11:45:52;100193.00;;;27.60
12061;BMP180;6091;51.432;6.880;2024-03-23T11:48:23;100190.00;;;27.90
12061;BMP180;6091;51.432;6.880;2024-03-23T11:50:55;100178.00;;;28.10
12061;BMP180;6091;51.432;6.880;2024-03-23T11:53:25;100171.00;;;28.40
12061;BMP180;6091;51.432;6.880;2024-03-23T11:55:59;100179.00;;;28.50
12061;BMP180;6091;51.432;6.880;2024-03-23T11:58:27;100186.00;;;28.70
12061;BMP180;6091;51.432;6.880;2024-03-23T12:01:04;100177.00;;;28.70
12061;BMP180;6091;51.432;6.880;2024-03-23T12:03:32;100187.00;;;28.60
12061;BMP180;6091;51.432;6.880;2024-03-23T12:06:02;100191.00;;;28.40
12061;BMP180;6091;51.432;6.880;2024-03-23T12:08:29;100184.00;;;28.20
12061;BMP180;6091;51.432;6.880;2024-03-23T12:11:13;100193.00;;;28.00
12061;BMP180;6091;51.432;6.880;2024-03-23T12:13:43;100197.00;;;27.80
12061;BMP180;6091;51.432;6.880;2024-03-23T12:16:21;100201.00;;;27.50
12061;BMP180;6091;51.432;6.880;2024-03-23T12:18:50;100178.00;;;27.40
12061;BMP180;6091;51.432;6.880;2024-03-23T12:21:17;100190.00;;;27.30
12061;BMP180;6091;51.432;6.880;2024-03-23T12:23:44;100184.00;;;27.20
12061;BMP180;6091;51.432;6.880;2024-03-23T12:26:13;100182.00;;;27.10
12061;BMP180;6091;51.432;6.880;2024-03-23T12:28:39;100179.00;;;27.00
12061;BMP180;6091;51.432;6.880;2024-03-23T12:31:06;100178.00;;;27.10
12061;BMP180;6091;51.432;6.880;2024-03-23T12:33:32;100171.00;;;27.20
12061;BMP180;6091;51.432;6.880;2024-03-23T12:36:00;100180.00;;;27.30
12061;BMP180;6091;51.432;6.880;2024-03-23T12:38:26;100180.00;;;27.40
12061;BMP180;6091;51.432;6.880;2024-03-23T12:40:52;100178.00;;;27.40
12061;BMP180;6091;51.432;6.880;2024-03-23T12:43:19;100177.00;;;27.50
12061;BMP180;6091;51.432;6.880;2024-03-23T12:45:49;100167.00;;;27.60
12061;BMP180;6091;51.432;6.880;2024-03-23T12:48:17;100165.00;;;27.70
12061;BMP180;6091;51.432;6.880;2024-03-23T12:50:44;100165.00;;;27.60
12061;BMP180;6091;51.432;6.880;2024-03-23T12:53:10;100167.00;;;27.50
12061;BMP180;6091;51.432;6.880;2024-03-23T12:55:37;100173.00;;;27.40
12061;BMP180;6091;51.432;6.880;2024-03-23T12:58:03;100191.00;;;27.20
12061;BMP180;6091;51.432;6.880;2024-03-23T13:00:30;100201.00;;;27.10
12061;BMP180;6091;51.432;6.880;2024-03-23T13:02:57;100197.00;;;26.90
12061;BMP180;6091;51.432;6.880;2024-03-23T13:05:23;100200.00;;;26.80
12061;BMP180;6091;51.432;6.880;2024-03-23T13:07:49;100203.00;;;26.80
12061;BMP180;6091;51.432;6.880;2024-03-23T13:10:17;100196.00;;;26.80
12061;BMP180;6091;51.432;6.880;2024-03-23T13:12:46;100202.00;;;26.70
12061;BMP180;6091;51.432;6.880;2024-03-23T13:15:12;100197.00;;;26.70
12061;BMP180;6091;51.432;6.880;2024-03-23T13:17:38;100192.00;;;26.60
12061;BMP180;6091;51.432;6.880;2024-03-23T13:20:05;100190.00;;;26.60
12061;BMP180;6091;51.432;6.880;2024-03-23T13:22:39;100173.00;;;26.60
12061;BMP180;6091;51.432;6.880;2024-03-23T13:25:06;100169.00;;;26.50
12061;BMP180;6091;51.432;6.880;2024-03-23T13:27:33;100164.00;;;26.50
12061;BMP180;6091;51.432;6.880;2024-03-23T13:29:59;100159.00;;;26.40
12061;BMP180;6091;51.432;6.880;2024-03-23T13:32:26;100152.00;;;26.40
12061;BMP180;6091;51.432;6.880;2024-03-23T13:34:53;100148.00;;;26.40
12061;BMP180;6091;51.432;6.880;2024-03-23T13:37:19;100158.00;;;26.30
12061;BMP180;6091;51.432;6.880;2024-03-23T13:39:47;100161.00;;;26.30
12061;BMP180;6091;51.432;6.880;2024-03-23T13:42:14;100155.00;;;26.20
12061;BMP180;6091;51.432;6.880;2024-03-23T13:44:42;100167.00;;;26.20
12061;BMP180;6091;51.432;6.880;2024-03-23T13:47:09;100151.00;;;26.10
12061;BMP180;6091;51.432;6.880;2024-03-23T13:49:35;100151.00;;;26.00
12061;BMP180;6091;51.432;6.880;2024-03-23T13:52:02;100153.00;;;26.00
12061;BMP180;6091;51.432;6.880;2024-03-23T13:54:28;100153.00;;;26.10
12061;BMP180;6091;51.432;6.880;2024-03-23T13:56:56;100151.00;;;26.10
12061;BMP180;6091;51.432;6.880;2024-03-23T13:59:23;100142.00;;;26.10
12061;BMP180;6091;51.432;6.880;2024-03-23T14:01:51;100139.00;;;26.10
12061;BMP180;6091;51.432;6.880;2024-03-23T14:04:18;100145.00;;;26.10
12061;BMP180;6091;51.432;6.880;2024-03-23T14:06:46;100139.00;;;26.10
12061;BMP180;6091;51.432;6.880;2024-03-23T14:09:15;100147.00;;;26.20
12061;BMP180;6091;51.432;6.880;2024-03-23T14:11:47;100138.00;;;26.20
12061;BMP180;6091;51.432;6.880;2024-03-23T14:14:13;100145.00;;;26.20
12061;BMP180;6091;51.432;6.880;2024-03-23T14:16:46;100141.00;;;26.20
12061;BMP180;6091;51.432;6.880;2024-03-23T14:19:12;100138.00;;;26.30
12061;BMP180;6091;51.432;6.880;2024-03-23T14:21:38;100157.00;;;26.30
12061;BMP180;6091;51.432;6.880;2024-03-23T14:24:06;100147.00;;;26.30
12061;BMP180;6091;51.432;6.880;2024-03-23T14:26:34;100154.00;;;26.30
12061;BMP180;6091;51.432;6.880;2024-03-23T14:29:00;100150.00;;;26.30
12061;BMP180;6091;51.432;6.880;2024-03-23T14:31:26;100146.00;;;26.30
12061;BMP180;6091;51.432;6.880;2024-03-23T14:33:52;100146.00;;;26.40
12061;BMP180;6091;51.432;6.880;2024-03-23T14:36:19;100136.00;;;26.50
12061;BMP180;6091;51.432;6.880;2024-03-23T14:38:49;100129.00;;;26.60
12061;BMP180;6091;51.432;6.880;2024-03-23T14:41:15;100123.00;;;26.60
12061;BMP180;6091;51.432;6.880;2024-03-23T14:43:41;100127.00;;;26.60
12061;BMP180;6091;51.432;6.880;2024-03-23T14:46:14;100127.00;;;26.60
12061;BMP180;6091;51.432;6.880;2024-03-23T14:48:43;100129.00;;;26.50
12061;BMP180;6091;51.432;6.880;2024-03-23T14:51:11;100109.00;;;26.40
12061;BMP180;6091;51.432;6.880;2024-03-23T14:53:40;100118.00;;;26.30
12061;BMP180;6091;51.432;6.880;2024-03-23T14:56:08;100110.00;;;26.30
12061;BMP180;6091;51.432;6.880;2024-03-23T14:58:38;100111.00;;;26.20
12061;BMP180;6091;51.432;6.880;2024-03-23T15:01:06;100105.00;;;26.10
12061;BMP180;6091;51.432;6.880;2024-03-23T15:03:39;100105.00;;;26.00
12061;BMP180;6091;51.432;6.880;2024-03-23T15:06:07;100110.00;;;26.00
12061;BMP180;6091;51.432;6.880;2024-03-23T15:08:38;100101.00;;;26.00
12061;BMP180;6091;51.432;6.880;2024-03-23T15:11:07;100094.00;;;26.00
12061;BMP180;6091;51.432;6.880;2024-03-23T15:13:37;100094.00;;;26.10
12061;BMP180;6091;51.432;6.880;2024-03-23T15:16:05;100098.00;;;26.10